sensor_id;sensor_type;location;lat;lon;timestamp;P1;durP1;ratioP1;P2;durP2;ratioP2
35444;SDS011;21562;49.476;6.086;2022-10-16T00:01:15;4.97;;;1.10;;
35444;SDS011;21562;49.476;6.086;2022-10-16T00:03:42;3.28;;;1.40;;
35444;SDS011;21562;49.476;6.086;2022-10-16T00:06:09;3.30;;;1.17;;
35444;SDS011;21562;49.476;6.086;2022-10-16T00:08:36;9.23;;;0.82;;
35444;SDS011;21562;49.476;6.086;2022-10-16T00:11:04;4.25;;;1.85;;
35444;SDS011;21562;49.476;6.086;2022-10-16T00:13:32;2.38;;;1.15;;
35444;SDS011;21562;49.476;6.086;2022-10-16T00:15:59;1.60;;;0.90;;
35444;SDS011;21562;49.476;6.086;2022-10-16T00:18:26;2.50;;;0.80;;
35444;SDS011;21562;49.476;6.086;2022-10-16T00:20:52;0.98;;;0.82;;
35444;SDS011;21562;49.476;6.086;2022-10-16T00:23:19;2.05;;;0.70;;
35444;SDS011;21562;49.476;6.086;2022-10-16T00:25:53;3.50;;;0.70;;
35444;SDS011;21562;49.476;6.086;2022-10-16T00:28:24;1.90;;;0.50;;
35444;SDS011;21562;49.476;6.086;2022-10-16T00:30:50;3.25;;;0.57;;
35444;SDS011;21562;49.476;6.086;2022-10-16T00:33:15;2.10;;;0.57;;
35444;SDS011;21562;49.476;6.086;2022-10-16T00:35:41;0.65;;;0.43;;
35444;SDS011;21562;49.476;6.086;2022-10-16T00:38:07;1.60;;;0.40;;
35444;SDS011;21562;49.476;6.086;2022-10-16T00:40:33;1.00;;;0.50;;
35444;SDS011;21562;49.476;6.086;2022-10-16T00:42:58;0.93;;;0.43;;
35444;SDS011;21562;49.476;6.086;2022-10-16T00:45:24;1.63;;;0.30;;
35444;SDS011;21562;49.476;6.086;2022-10-16T00:47:49;3.20;;;0.52;;
35444;SDS011;21562;49.476;6.086;2022-10-16T00:50:31;1.55;;;0.40;;
35444;SDS011;21562;49.476;6.086;2022-10-16T00:52:59;0.98;;;0.32;;
35444;SDS011;21562;49.476;6.086;2022-10-16T00:55:27;4.13;;;0.43;;
35444;SDS011;21562;49.476;6.086;2022-10-16T00:57:55;3.95;;;0.40;;
35444;SDS011;21562;49.476;6.086;2022-10-16T01:00:23;1.35;;;0.63;;
35444;SDS011;21562;49.476;6.086;2022-10-16T01:02:54;1.15;;;0.40;;
35444;SDS011;21562;49.476;6.086;2022-10-16T01:05:22;0.73;;;0.57;;
35444;SDS011;21562;49.476;6.086;2022-10-16T01:08:01;0.55;;;0.50;;
35444;SDS011;21562;49.476;6.086;2022-10-16T01:10:40;1.30;;;0.40;;
35444;SDS011;21562;49.476;6.086;2022-10-16T01:13:24;2.33;;;0.52;;
35444;SDS011;21562;49.476;6.086;2022-10-16T01:18:39;2.53;;;0.35;;
35444;SDS011;21562;49.476;6.086;2022-10-16T01:29:30;2.83;;;0.55;;
35444;SDS011;21562;49.476;6.086;2022-10-16T01:35:11;7.93;;;0.50;;
35444;SDS011;21562;49.476;6.086;2022-10-16T01:37:49;2.17;;;0.40;;
35444;SDS011;21562;49.476;6.086;2022-10-16T01:40:21;6.80;;;0.40;;
35444;SDS011;21562;49.476;6.086;2022-10-16T01:42:55;2.13;;;0.47;;
35444;SDS011;21562;49.476;6.086;2022-10-16T01:45:26;3.33;;;0.65;;
35444;SDS011;21562;49.476;6.086;2022-10-16T01:47:54;2.10;;;0.52;;
35444;SDS011;21562;49.476;6.086;2022-10-16T01:50:20;2.47;;;0.40;;
35444;SDS011;21562;49.476;6.086;2022-10-16T01:52:48;4.15;;;0.50;;
35444;SDS011;21562;49.476;6.086;2022-10-16T01:55:22;1.30;;;0.50;;
35444;SDS011;21562;49.476;6.086;2022-10-16T01:57:53;1.67;;;0.50;;
35444;SDS011;21562;49.476;6.086;2022-10-16T02:00:21;4.97;;;0.60;;
35444;SDS011;21562;49.476;6.086;2022-10-16T02:02:49;0.63;;;0.50;;
35444;SDS011;21562;49.476;6.086;2022-10-16T02:05:28;0.30;;;0.30;;
35444;SDS011;21562;49.476;6.086;2022-10-16T02:07:59;1.42;;;0.43;;
35444;SDS011;21562;49.476;6.086;2022-10-16T02:10:25;1.02;;;0.50;;
35444;SDS011;21562;49.476;6.086;2022-10-16T02:13:17;1.08;;;0.50;;
35444;SDS011;21562;49.476;6.086;2022-10-16T02:15:51;4.20;;;0.60;;
35444;SDS011;21562;49.476;6.086;2022-10-16T02:18:17;1.30;;;0.50;;
35444;SDS011;21562;49.476;6.086;2022-10-16T02:20:48;2.38;;;0.40;;
35444;SDS011;21562;49.476;6.086;2022-10-16T02:23:24;0.77;;;0.50;;
35444;SDS011;21562;49.476;6.086;2022-10-16T02:26:11;1.13;;;0.50;;
35444;SDS011;21562;49.476;6.086;2022-10-16T02:28:46;0.43;;;0.30;;
35444;SDS011;21562;49.476;6.086;2022-10-16T02:31:18;0.65;;;0.30;;
35444;SDS011;21562;49.476;6.086;2022-10-16T02:33:48;2.10;;;0.70;;
35444;SDS011;21562;49.476;6.086;2022-10-16T02:36:17;2.85;;;0.60;;
35444;SDS011;21562;49.476;6.086;2022-10-16T02:38:43;4.07;;;0.50;;
35444;SDS011;21562;49.476;6.086;2022-10-16T02:41:09;0.65;;;0.40;;
35444;SDS011;21562;49.476;6.086;2022-10-16T02:43:35;10.55;;;0.70;;
35444;SDS011;21562;49.476;6.086;2022-10-16T02:46:00;1.13;;;0.73;;
35444;SDS011;21562;49.476;6.086;2022-10-16T02:48:26;0.70;;;0.50;;
35444;SDS011;21562;49.476;6.086;2022-10-16T02:50:52;0.77;;;0.35;;
35444;SDS011;21562;49.476;6.086;2022-10-16T02:53:17;2.47;;;0.57;;
35444;SDS011;21562;49.476;6.086;2022-10-16T02:55:43;1.80;;;0.40;;
35444;SDS011;21562;49.476;6.086;2022-10-16T02:58:08;2.15;;;0.50;;
35444;SDS011;21562;49.476;6.086;2022-10-16T03:00:34;4.88;;;0.52;;
35444;SDS011;21562;49.476;6.086;2022-10-16T03:03:00;2.85;;;0.50;;
35444;SDS011;21562;49.476;6.086;2022-10-16T03:05:26;1.55;;;0.40;;
35444;SDS011;21562;49.476;6.086;2022-10-16T03:07:51;3.92;;;0.50;;
35444;SDS011;21562;49.476;6.086;2022-10-16T03:10:17;1.00;;;0.50;;
35444;SDS011;21562;49.476;6.086;2022-10-16T03:12:43;0.75;;;0.47;;
35444;SDS011;21562;49.476;6.086;2022-10-16T03:15:09;2.30;;;0.55;;
35444;SDS011;21562;49.476;6.086;2022-10-16T03:17:35;3.45;;;0.50;;
35444;SDS011;21562;49.476;6.086;2022-10-16T03:20:00;4.18;;;0.47;;
35444;SDS011;21562;49.476;6.086;2022-10-16T03:22:26;2.45;;;0.30;;
35444;SDS011;21562;49.476;6.086;2022-10-16T03:24:51;2.15;;;0.43;;
35444;SDS011;21562;49.476;6.086;2022-10-16T03:27:17;1.38;;;0.30;;
35444;SDS011;21562;49.476;6.086;2022-10-16T03:29:43;1.08;;;0.30;;
35444;SDS011;21562;49.476;6.086;2022-10-16T03:32:08;2.20;;;0.40;;
35444;SDS011;21562;49.476;6.086;2022-10-16T03:34:34;2.78;;;0.40;;
35444;SDS011;21562;49.476;6.086;2022-10-16T03:37:00;1.42;;;0.50;;
35444;SDS011;21562;49.476;6.086;2022-10-16T03:39:25;2.53;;;0.60;;
35444;SDS011;21562;49.476;6.086;2022-10-16T03:41:52;0.47;;;0.38;;
35444;SDS011;21562;49.476;6.086;2022-10-16T03:44:17;1.23;;;0.60;;
35444;SDS011;21562;49.476;6.086;2022-10-16T03:46:43;1.85;;;0.70;;
35444;SDS011;21562;49.476;6.086;2022-10-16T03:49:09;0.85;;;0.77;;
35444;SDS011;21562;49.476;6.086;2022-10-16T03:51:34;3.10;;;0.70;;
35444;SDS011;21562;49.476;6.086;2022-10-16T03:54:00;1.35;;;0.40;;
35444;SDS011;21562;49.476;6.086;2022-10-16T03:56:26;2.08;;;0.20;;
35444;SDS011;21562;49.476;6.086;2022-10-16T03:58:51;1.25;;;0.38;;
35444;SDS011;21562;49.476;6.086;2022-10-16T04:01:17;3.67;;;0.68;;
35444;SDS011;21562;49.476;6.086;2022-10-16T04:03:42;1.42;;;0.73;;
35444;SDS011;21562;49.476;6.086;2022-10-16T04:06:08;2.20;;;1.38;;
35444;SDS011;21562;49.476;6.086;2022-10-16T04:08:34;1.65;;;1.55;;
35444;SDS011;21562;49.476;6.086;2022-10-16T04:11:01;1.42;;;1.02;;
35444;SDS011;21562;49.476;6.086;2022-10-16T04:13:27;2.75;;;2.38;;
35444;SDS011;21562;49.476;6.086;2022-10-16T04:15:53;3.97;;;3.30;;
35444;SDS011;21562;49.476;6.086;2022-10-16T04:18:19;6.47;;;3.95;;
35444;SDS011;21562;49.476;6.086;2022-10-16T04:20:44;6.75;;;3.67;;
35444;SDS011;21562;49.476;6.086;2022-10-16T04:23:10;10.27;;;5.60;;
35444;SDS011;21562;49.476;6.086;2022-10-16T04:25:35;15.35;;;6.50;;
35444;SDS011;21562;49.476;6.086;2022-10-16T04:28:01;12.40;;;7.60;;
35444;SDS011;21562;49.476;6.086;2022-10-16T04:30:27;13.02;;;9.25;;
35444;SDS011;21562;49.476;6.086;2022-10-16T04:32:53;19.42;;;10.70;;
35444;SDS011;21562;49.476;6.086;2022-10-16T04:35:19;12.95;;;9.80;;
35444;SDS011;21562;49.476;6.086;2022-10-16T04:37:46;13.80;;;10.63;;
35444;SDS011;21562;49.476;6.086;2022-10-16T04:40:12;18.02;;;12.27;;
35444;SDS011;21562;49.476;6.086;2022-10-16T04:42:38;15.07;;;10.88;;
35444;SDS011;21562;49.476;6.086;2022-10-16T04:45:05;15.32;;;11.00;;
35444;SDS011;21562;49.476;6.086;2022-10-16T04:47:31;15.35;;;10.98;;
35444;SDS011;21562;49.476;6.086;2022-10-16T04:49:56;14.50;;;10.70;;
35444;SDS011;21562;49.476;6.086;2022-10-16T04:52:22;11.73;;;9.60;;
35444;SDS011;21562;49.476;6.086;2022-10-16T04:54:49;15.57;;;10.48;;
35444;SDS011;21562;49.476;6.086;2022-10-16T04:57:15;16.55;;;11.18;;
35444;SDS011;21562;49.476;6.086;2022-10-16T04:59:41;13.85;;;10.68;;
35444;SDS011;21562;49.476;6.086;2022-10-16T05:02:07;15.43;;;10.88;;
35444;SDS011;21562;49.476;6.086;2022-10-16T05:04:32;14.00;;;9.90;;
35444;SDS011;21562;49.476;6.086;2022-10-16T05:06:58;14.75;;;10.05;;
35444;SDS011;21562;49.476;6.086;2022-10-16T05:09:23;11.88;;;9.55;;
35444;SDS011;21562;49.476;6.086;2022-10-16T05:11:49;12.48;;;9.82;;
35444;SDS011;21562;49.476;6.086;2022-10-16T05:14:15;11.77;;;10.23;;
35444;SDS011;21562;49.476;6.086;2022-10-16T05:16:41;13.38;;;10.05;;
35444;SDS011;21562;49.476;6.086;2022-10-16T05:19:06;14.23;;;9.77;;
35444;SDS011;21562;49.476;6.086;2022-10-16T05:21:32;13.50;;;9.88;;
35444;SDS011;21562;49.476;6.086;2022-10-16T05:23:58;12.05;;;9.77;;
35444;SDS011;21562;49.476;6.086;2022-10-16T05:26:23;15.00;;;9.18;;
35444;SDS011;21562;49.476;6.086;2022-10-16T05:28:49;9.70;;;8.65;;
35444;SDS011;21562;49.476;6.086;2022-10-16T05:31:15;9.45;;;8.10;;
35444;SDS011;21562;49.476;6.086;2022-10-16T05:33:41;14.32;;;8.82;;
35444;SDS011;21562;49.476;6.086;2022-10-16T05:36:07;9.90;;;8.55;;
35444;SDS011;21562;49.476;6.086;2022-10-16T05:38:34;12.25;;;9.00;;
35444;SDS011;21562;49.476;6.086;2022-10-16T05:41:00;11.38;;;7.75;;
35444;SDS011;21562;49.476;6.086;2022-10-16T05:43:27;9.65;;;6.97;;
35444;SDS011;21562;49.476;6.086;2022-10-16T05:46:04;8.43;;;6.57;;
35444;SDS011;21562;49.476;6.086;2022-10-16T05:48:30;9.85;;;6.22;;
35444;SDS011;21562;49.476;6.086;2022-10-16T05:50:58;8.73;;;5.88;;
35444;SDS011;21562;49.476;6.086;2022-10-16T05:53:24;8.88;;;5.60;;
35444;SDS011;21562;49.476;6.086;2022-10-16T05:55:51;8.07;;;5.20;;
35444;SDS011;21562;49.476;6.086;2022-10-16T05:58:18;6.82;;;6.13;;
35444;SDS011;21562;49.476;6.086;2022-10-16T06:00:43;8.85;;;5.78;;
35444;SDS011;21562;49.476;6.086;2022-10-16T06:03:09;6.80;;;4.72;;
35444;SDS011;21562;49.476;6.086;2022-10-16T06:05:34;10.70;;;5.40;;
35444;SDS011;21562;49.476;6.086;2022-10-16T06:08:00;6.85;;;4.47;;
35444;SDS011;21562;49.476;6.086;2022-10-16T06:10:26;7.80;;;4.07;;
35444;SDS011;21562;49.476;6.086;2022-10-16T06:12:51;9.65;;;6.00;;
35444;SDS011;21562;49.476;6.086;2022-10-16T06:15:17;6.85;;;4.88;;
35444;SDS011;21562;49.476;6.086;2022-10-16T06:17:42;5.00;;;3.72;;
35444;SDS011;21562;49.476;6.086;2022-10-16T06:20:08;5.00;;;3.05;;
35444;SDS011;21562;49.476;6.086;2022-10-16T06:22:34;6.38;;;4.20;;
35444;SDS011;21562;49.476;6.086;2022-10-16T06:25:00;7.60;;;3.47;;
35444;SDS011;21562;49.476;6.086;2022-10-16T06:27:25;4.50;;;3.25;;
35444;SDS011;21562;49.476;6.086;2022-10-16T06:29:51;6.28;;;4.18;;
35444;SDS011;21562;49.476;6.086;2022-10-16T06:32:16;5.80;;;4.03;;
35444;SDS011;21562;49.476;6.086;2022-10-16T06:34:42;4.53;;;3.42;;
35444;SDS011;21562;49.476;6.086;2022-10-16T06:37:08;5.25;;;3.50;;
35444;SDS011;21562;49.476;6.086;2022-10-16T06:39:33;6.32;;;4.10;;
35444;SDS011;21562;49.476;6.086;2022-10-16T06:41:59;7.15;;;4.15;;
35444;SDS011;21562;49.476;6.086;2022-10-16T06:44:24;15.15;;;5.40;;
35444;SDS011;21562;49.476;6.086;2022-10-16T06:46:50;8.18;;;4.80;;
35444;SDS011;21562;49.476;6.086;2022-10-16T06:49:16;11.77;;;5.13;;
35444;SDS011;21562;49.476;6.086;2022-10-16T06:51:46;7.60;;;5.32;;
35444;SDS011;21562;49.476;6.086;2022-10-16T06:54:12;6.82;;;4.95;;
35444;SDS011;21562;49.476;6.086;2022-10-16T06:56:37;9.75;;;6.05;;
35444;SDS011;21562;49.476;6.086;2022-10-16T06:59:03;7.80;;;5.00;;
35444;SDS011;21562;49.476;6.086;2022-10-16T07:01:29;9.75;;;4.78;;
35444;SDS011;21562;49.476;6.086;2022-10-16T07:03:55;11.15;;;4.85;;
35444;SDS011;21562;49.476;6.086;2022-10-16T07:06:21;4.68;;;3.78;;
35444;SDS011;21562;49.476;6.086;2022-10-16T07:08:49;7.03;;;3.58;;
35444;SDS011;21562;49.476;6.086;2022-10-16T07:11:16;4.78;;;2.83;;
35444;SDS011;21562;49.476;6.086;2022-10-16T07:13:44;8.52;;;3.00;;
35444;SDS011;21562;49.476;6.086;2022-10-16T07:16:14;3.97;;;3.15;;
35444;SDS011;21562;49.476;6.086;2022-10-16T07:18:42;8.07;;;3.33;;
35444;SDS011;21562;49.476;6.086;2022-10-16T07:21:14;6.90;;;3.20;;
35444;SDS011;21562;49.476;6.086;2022-10-16T07:23:41;5.95;;;2.13;;
35444;SDS011;21562;49.476;6.086;2022-10-16T07:26:08;4.78;;;2.50;;
35444;SDS011;21562;49.476;6.086;2022-10-16T07:28:34;6.03;;;1.90;;
35444;SDS011;21562;49.476;6.086;2022-10-16T07:31:01;4.10;;;2.20;;
35444;SDS011;21562;49.476;6.086;2022-10-16T07:33:32;3.40;;;1.50;;
35444;SDS011;21562;49.476;6.086;2022-10-16T07:35:59;3.83;;;1.25;;
35444;SDS011;21562;49.476;6.086;2022-10-16T07:38:24;5.68;;;1.48;;
35444;SDS011;21562;49.476;6.086;2022-10-16T07:41:00;4.40;;;1.80;;
35444;SDS011;21562;49.476;6.086;2022-10-16T07:43:27;5.38;;;2.80;;
35444;SDS011;21562;49.476;6.086;2022-10-16T07:45:53;6.65;;;2.20;;
35444;SDS011;21562;49.476;6.086;2022-10-16T07:48:19;4.57;;;1.80;;
35444;SDS011;21562;49.476;6.086;2022-10-16T07:50:45;6.60;;;1.60;;
35444;SDS011;21562;49.476;6.086;2022-10-16T07:53:11;4.80;;;1.35;;
35444;SDS011;21562;49.476;6.086;2022-10-16T07:55:37;3.08;;;1.70;;
35444;SDS011;21562;49.476;6.086;2022-10-16T07:58:03;3.25;;;1.05;;
35444;SDS011;21562;49.476;6.086;2022-10-16T08:00:29;2.55;;;0.80;;
35444;SDS011;21562;49.476;6.086;2022-10-16T08:02:56;2.50;;;0.80;;
35444;SDS011;21562;49.476;6.086;2022-10-16T08:05:25;2.53;;;0.50;;
35444;SDS011;21562;49.476;6.086;2022-10-16T08:07:51;1.90;;;0.60;;
35444;SDS011;21562;49.476;6.086;2022-10-16T08:10:18;1.92;;;0.47;;
35444;SDS011;21562;49.476;6.086;2022-10-16T08:12:45;1.48;;;0.63;;
35444;SDS011;21562;49.476;6.086;2022-10-16T08:15:11;5.57;;;1.52;;
35444;SDS011;21562;49.476;6.086;2022-10-16T08:17:37;5.20;;;2.45;;
35444;SDS011;21562;49.476;6.086;2022-10-16T08:20:03;3.10;;;2.20;;
35444;SDS011;21562;49.476;6.086;2022-10-16T08:22:29;4.53;;;3.00;;
35444;SDS011;21562;49.476;6.086;2022-10-16T08:24:55;4.47;;;2.65;;
35444;SDS011;21562;49.476;6.086;2022-10-16T08:27:20;4.72;;;2.88;;
35444;SDS011;21562;49.476;6.086;2022-10-16T08:29:48;6.28;;;4.20;;
35444;SDS011;21562;49.476;6.086;2022-10-16T08:32:14;5.57;;;3.78;;
35444;SDS011;21562;49.476;6.086;2022-10-16T08:34:40;7.28;;;3.60;;
35444;SDS011;21562;49.476;6.086;2022-10-16T08:37:06;5.90;;;3.28;;
35444;SDS011;21562;49.476;6.086;2022-10-16T08:39:33;6.25;;;3.00;;
35444;SDS011;21562;49.476;6.086;2022-10-16T08:50:14;9.00;;;3.50;;
35444;SDS011;21562;49.476;6.086;2022-10-16T08:52:47;6.05;;;2.40;;
35444;SDS011;21562;49.476;6.086;2022-10-16T08:55:19;3.63;;;2.50;;
35444;SDS011;21562;49.476;6.086;2022-10-16T08:57:54;5.45;;;2.60;;
35444;SDS011;21562;49.476;6.086;2022-10-16T09:00:20;8.52;;;2.53;;
35444;SDS011;21562;49.476;6.086;2022-10-16T09:03:06;5.03;;;2.47;;
35444;SDS011;21562;49.476;6.086;2022-10-16T09:05:56;5.80;;;2.63;;
35444;SDS011;21562;49.476;6.086;2022-10-16T09:16:57;4.13;;;2.53;;
35444;SDS011;21562;49.476;6.086;2022-10-16T09:19:30;2.75;;;2.30;;
35444;SDS011;21562;49.476;6.086;2022-10-16T09:22:09;7.65;;;2.05;;
35444;SDS011;21562;49.476;6.086;2022-10-16T09:24:39;2.90;;;1.95;;
35444;SDS011;21562;49.476;6.086;2022-10-16T09:27:07;3.97;;;2.00;;
35444;SDS011;21562;49.476;6.086;2022-10-16T09:29:36;3.60;;;1.85;;
35444;SDS011;21562;49.476;6.086;2022-10-16T09:32:20;2.85;;;2.40;;
35444;SDS011;21562;49.476;6.086;2022-10-16T09:34:49;6.30;;;2.30;;
35444;SDS011;21562;49.476;6.086;2022-10-16T09:37:18;2.47;;;1.52;;
35444;SDS011;21562;49.476;6.086;2022-10-16T09:42:16;3.35;;;1.77;;
35444;SDS011;21562;49.476;6.086;2022-10-16T09:44:47;4.00;;;1.30;;
35444;SDS011;21562;49.476;6.086;2022-10-16T09:47:16;2.13;;;1.30;;
35444;SDS011;21562;49.476;6.086;2022-10-16T09:50:19;5.60;;;1.38;;
35444;SDS011;21562;49.476;6.086;2022-10-16T09:53:04;43.00;;;22.67;;
35444;SDS011;21562;49.476;6.086;2022-10-16T09:55:47;27.33;;;14.90;;
35444;SDS011;21562;49.476;6.086;2022-10-16T09:58:17;33.90;;;18.48;;
35444;SDS011;21562;49.476;6.086;2022-10-16T10:00:49;17.92;;;9.07;;
35444;SDS011;21562;49.476;6.086;2022-10-16T10:03:31;45.55;;;22.92;;
35444;SDS011;21562;49.476;6.086;2022-10-16T10:06:20;37.42;;;21.50;;
35444;SDS011;21562;49.476;6.086;2022-10-16T10:11:37;23.35;;;13.60;;
35444;SDS011;21562;49.476;6.086;2022-10-16T10:14:17;8.82;;;5.88;;
35444;SDS011;21562;49.476;6.086;2022-10-16T10:19:52;5.45;;;3.15;;
35444;SDS011;21562;49.476;6.086;2022-10-16T10:22:22;4.72;;;2.83;;
35444;SDS011;21562;49.476;6.086;2022-10-16T10:30:15;10.48;;;5.47;;
35444;SDS011;21562;49.476;6.086;2022-10-16T10:35:36;7.43;;;4.55;;
35444;SDS011;21562;49.476;6.086;2022-10-16T10:38:25;8.88;;;4.32;;
35444;SDS011;21562;49.476;6.086;2022-10-16T10:43:54;5.63;;;3.60;;
35444;SDS011;21562;49.476;6.086;2022-10-16T10:57:58;6.93;;;4.60;;
35444;SDS011;21562;49.476;6.086;2022-10-16T11:03:10;10.27;;;4.55;;
35444;SDS011;21562;49.476;6.086;2022-10-16T11:05:52;7.10;;;4.75;;
35444;SDS011;21562;49.476;6.086;2022-10-16T11:08:41;6.13;;;4.72;;
35444;SDS011;21562;49.476;6.086;2022-10-16T11:11:24;8.18;;;5.18;;
35444;SDS011;21562;49.476;6.086;2022-10-16T11:14:16;8.20;;;5.07;;
35444;SDS011;21562;49.476;6.086;2022-10-16T11:17:27;6.88;;;5.22;;
35444;SDS011;21562;49.476;6.086;2022-10-16T11:19:40;7.68;;;5.80;;
35444;SDS011;21562;49.476;6.086;2022-10-16T11:22:37;11.05;;;5.03;;
35444;SDS011;21562;49.476;6.086;2022-10-16T11:28:02;12.57;;;6.15;;
35444;SDS011;21562;49.476;6.086;2022-10-16T11:30:50;8.93;;;5.07;;
35444;SDS011;21562;49.476;6.086;2022-10-16T11:33:39;9.95;;;4.63;;
35444;SDS011;21562;49.476;6.086;2022-10-16T11:36:15;7.60;;;4.20;;
35444;SDS011;21562;49.476;6.086;2022-10-16T11:38:50;8.43;;;4.30;;
35444;SDS011;21562;49.476;6.086;2022-10-16T11:49:37;7.60;;;3.42;;
35444;SDS011;21562;49.476;6.086;2022-10-16T11:54:51;5.28;;;4.15;;
35444;SDS011;21562;49.476;6.086;2022-10-16T11:57:23;7.32;;;3.92;;
35444;SDS011;21562;49.476;6.086;2022-10-16T11:59:54;9.05;;;6.10;;
35444;SDS011;21562;49.476;6.086;2022-10-16T12:07:55;8.80;;;6.20;;
35444;SDS011;21562;49.476;6.086;2022-10-16T12:10:26;14.20;;;7.63;;
35444;SDS011;21562;49.476;6.086;2022-10-16T12:12:54;13.65;;;7.68;;
35444;SDS011;21562;49.476;6.086;2022-10-16T12:15:25;10.02;;;6.22;;
35444;SDS011;21562;49.476;6.086;2022-10-16T12:17:55;15.18;;;8.10;;
35444;SDS011;21562;49.476;6.086;2022-10-16T12:22:52;12.95;;;8.55;;
35444;SDS011;21562;49.476;6.086;2022-10-16T12:27:57;12.90;;;9.32;;
35444;SDS011;21562;49.476;6.086;2022-10-16T12:30:26;13.07;;;9.45;;
35444;SDS011;21562;49.476;6.086;2022-10-16T12:32:58;15.35;;;9.23;;
35444;SDS011;21562;49.476;6.086;2022-10-16T12:35:30;15.75;;;10.38;;
35444;SDS011;21562;49.476;6.086;2022-10-16T12:38:18;19.48;;;10.85;;
35444;SDS011;21562;49.476;6.086;2022-10-16T12:40:46;12.27;;;9.18;;
35444;SDS011;21562;49.476;6.086;2022-10-16T12:43:25;20.20;;;13.10;;
35444;SDS011;21562;49.476;6.086;2022-10-16T12:48:34;16.95;;;11.70;;
35444;SDS011;21562;49.476;6.086;2022-10-16T12:56:41;22.98;;;12.52;;
35444;SDS011;21562;49.476;6.086;2022-10-16T13:02:20;19.48;;;12.95;;
35444;SDS011;21562;49.476;6.086;2022-10-16T13:07:50;25.60;;;15.07;;
35444;SDS011;21562;49.476;6.086;2022-10-16T13:22:11;29.05;;;16.98;;
35444;SDS011;21562;49.476;6.086;2022-10-16T13:29:45;35.13;;;18.30;;
35444;SDS011;21562;49.476;6.086;2022-10-16T13:32:20;34.03;;;17.33;;
35444;SDS011;21562;49.476;6.086;2022-10-16T13:34:48;27.35;;;17.05;;
35444;SDS011;21562;49.476;6.086;2022-10-16T13:37:17;25.00;;;15.88;;
35444;SDS011;21562;49.476;6.086;2022-10-16T13:39:45;31.65;;;15.98;;
35444;SDS011;21562;49.476;6.086;2022-10-16T13:44:40;25.58;;;16.13;;
35444;SDS011;21562;49.476;6.086;2022-10-16T13:47:21;22.60;;;15.10;;
35444;SDS011;21562;49.476;6.086;2022-10-16T13:52:40;18.77;;;11.93;;
35444;SDS011;21562;49.476;6.086;2022-10-16T13:55:13;24.05;;;12.73;;
35444;SDS011;21562;49.476;6.086;2022-10-16T13:57:40;21.92;;;12.50;;
35444;SDS011;21562;49.476;6.086;2022-10-16T14:00:22;19.20;;;11.65;;
35444;SDS011;21562;49.476;6.086;2022-10-16T14:02:55;17.27;;;11.52;;
35444;SDS011;21562;49.476;6.086;2022-10-16T14:05:26;25.88;;;12.25;;
35444;SDS011;21562;49.476;6.086;2022-10-16T14:07:51;19.38;;;11.13;;
35444;SDS011;21562;49.476;6.086;2022-10-16T14:10:24;19.15;;;11.55;;
35444;SDS011;21562;49.476;6.086;2022-10-16T14:12:56;16.98;;;10.80;;
35444;SDS011;21562;49.476;6.086;2022-10-16T14:15:30;17.08;;;10.52;;
35444;SDS011;21562;49.476;6.086;2022-10-16T14:17:57;14.88;;;9.25;;
35444;SDS011;21562;49.476;6.086;2022-10-16T14:20:27;18.52;;;10.07;;
35444;SDS011;21562;49.476;6.086;2022-10-16T14:23:05;17.48;;;10.80;;
35444;SDS011;21562;49.476;6.086;2022-10-16T14:25:44;20.60;;;13.40;;
35444;SDS011;21562;49.476;6.086;2022-10-16T14:30:47;14.60;;;9.18;;
35444;SDS011;21562;49.476;6.086;2022-10-16T14:33:31;16.67;;;8.85;;
35444;SDS011;21562;49.476;6.086;2022-10-16T14:36:05;17.77;;;8.35;;
35444;SDS011;21562;49.476;6.086;2022-10-16T14:38:31;15.15;;;8.40;;
35444;SDS011;21562;49.476;6.086;2022-10-16T14:40:58;10.68;;;7.70;;
35444;SDS011;21562;49.476;6.086;2022-10-16T14:43:34;15.88;;;8.50;;
35444;SDS011;21562;49.476;6.086;2022-10-16T14:46:13;14.82;;;6.88;;
35444;SDS011;21562;49.476;6.086;2022-10-16T14:48:42;13.70;;;7.35;;
35444;SDS011;21562;49.476;6.086;2022-10-16T14:51:14;10.50;;;6.53;;
35444;SDS011;21562;49.476;6.086;2022-10-16T14:53:40;10.85;;;6.90;;
35444;SDS011;21562;49.476;6.086;2022-10-16T14:56:07;12.85;;;6.38;;
35444;SDS011;21562;49.476;6.086;2022-10-16T14:58:39;13.18;;;6.32;;
35444;SDS011;21562;49.476;6.086;2022-10-16T15:01:05;10.90;;;5.82;;
35444;SDS011;21562;49.476;6.086;2022-10-16T15:03:33;11.23;;;5.82;;
35444;SDS011;21562;49.476;6.086;2022-10-16T15:05:59;11.85;;;5.47;;
35444;SDS011;21562;49.476;6.086;2022-10-16T15:08:24;10.68;;;5.88;;
35444;SDS011;21562;49.476;6.086;2022-10-16T15:10:50;15.55;;;4.22;;
35444;SDS011;21562;49.476;6.086;2022-10-16T15:13:16;17.00;;;4.20;;
35444;SDS011;21562;49.476;6.086;2022-10-16T15:15:46;9.90;;;4.38;;
35444;SDS011;21562;49.476;6.086;2022-10-16T15:18:12;12.45;;;4.47;;
35444;SDS011;21562;49.476;6.086;2022-10-16T15:20:39;10.68;;;4.25;;
35444;SDS011;21562;49.476;6.086;2022-10-16T15:23:06;8.43;;;3.92;;
35444;SDS011;21562;49.476;6.086;2022-10-16T15:25:46;10.77;;;3.40;;
35444;SDS011;21562;49.476;6.086;2022-10-16T15:28:16;8.88;;;3.67;;
35444;SDS011;21562;49.476;6.086;2022-10-16T15:30:43;6.53;;;3.40;;
35444;SDS011;21562;49.476;6.086;2022-10-16T15:33:14;5.25;;;4.10;;
35444;SDS011;21562;49.476;6.086;2022-10-16T15:35:41;6.10;;;4.03;;
35444;SDS011;21562;49.476;6.086;2022-10-16T15:38:11;14.23;;;3.75;;
35444;SDS011;21562;49.476;6.086;2022-10-16T15:40:37;9.70;;;3.88;;
35444;SDS011;21562;49.476;6.086;2022-10-16T15:43:03;6.10;;;3.72;;
35444;SDS011;21562;49.476;6.086;2022-10-16T15:45:29;10.25;;;4.13;;
35444;SDS011;21562;49.476;6.086;2022-10-16T15:47:55;10.27;;;3.80;;
35444;SDS011;21562;49.476;6.086;2022-10-16T15:50:20;5.53;;;3.65;;
35444;SDS011;21562;49.476;6.086;2022-10-16T15:52:46;11.32;;;4.22;;
35444;SDS011;21562;49.476;6.086;2022-10-16T15:55:12;6.35;;;3.65;;
35444;SDS011;21562;49.476;6.086;2022-10-16T15:57:39;5.28;;;3.97;;
35444;SDS011;21562;49.476;6.086;2022-10-16T16:00:07;4.43;;;3.30;;
35444;SDS011;21562;49.476;6.086;2022-10-16T16:02:34;5.53;;;4.55;;
35444;SDS011;21562;49.476;6.086;2022-10-16T16:05:00;6.72;;;4.35;;
35444;SDS011;21562;49.476;6.086;2022-10-16T16:07:26;5.53;;;4.25;;
35444;SDS011;21562;49.476;6.086;2022-10-16T16:09:52;5.82;;;3.95;;
35444;SDS011;21562;49.476;6.086;2022-10-16T16:12:18;8.10;;;5.85;;
35444;SDS011;21562;49.476;6.086;2022-10-16T16:14:44;8.45;;;4.55;;
35444;SDS011;21562;49.476;6.086;2022-10-16T16:17:11;7.68;;;4.43;;
35444;SDS011;21562;49.476;6.086;2022-10-16T16:19:36;8.50;;;4.07;;
35444;SDS011;21562;49.476;6.086;2022-10-16T16:22:02;6.10;;;4.40;;
35444;SDS011;21562;49.476;6.086;2022-10-16T16:24:27;8.00;;;4.18;;
35444;SDS011;21562;49.476;6.086;2022-10-16T16:26:53;7.22;;;4.68;;
35444;SDS011;21562;49.476;6.086;2022-10-16T16:29:19;7.22;;;3.83;;
35444;SDS011;21562;49.476;6.086;2022-10-16T16:31:45;8.95;;;5.15;;
35444;SDS011;21562;49.476;6.086;2022-10-16T16:34:12;6.93;;;4.05;;
35444;SDS011;21562;49.476;6.086;2022-10-16T16:36:38;10.98;;;5.00;;
35444;SDS011;21562;49.476;6.086;2022-10-16T16:39:04;11.07;;;5.47;;
35444;SDS011;21562;49.476;6.086;2022-10-16T16:41:31;8.15;;;5.03;;
35444;SDS011;21562;49.476;6.086;2022-10-16T16:44:01;7.43;;;4.95;;
35444;SDS011;21562;49.476;6.086;2022-10-16T16:46:28;10.43;;;6.35;;
35444;SDS011;21562;49.476;6.086;2022-10-16T16:48:54;9.73;;;5.85;;
35444;SDS011;21562;49.476;6.086;2022-10-16T16:51:20;8.50;;;5.60;;
35444;SDS011;21562;49.476;6.086;2022-10-16T16:53:47;10.20;;;6.53;;
35444;SDS011;21562;49.476;6.086;2022-10-16T16:56:15;10.60;;;6.05;;
35444;SDS011;21562;49.476;6.086;2022-10-16T16:58:43;13.38;;;7.78;;
35444;SDS011;21562;49.476;6.086;2022-10-16T17:01:10;10.45;;;5.53;;